createdAt,value
2023-04-20T00:00:46.279Z,0.00
2023-04-20T00:01:46.287Z,0.00
2023-04-20T00:02:46.353Z,0.00
2023-04-20T00:03:46.337Z,0.00
2023-04-20T00:04:46.219Z,0.00
2023-04-20T00:05:46.213Z,0.00
2023-04-20T00:06:46.195Z,0.00
2023-04-20T00:07:46.181Z,0.00
2023-04-20T00:08:46.163Z,0.00
2023-04-20T00:09:46.158Z,0.00
2023-04-20T00:10:46.175Z,0.00
2023-04-20T00:11:46.127Z,0.00
2023-04-20T00:12:46.107Z,0.00
2023-04-20T00:13:46.110Z,0.00
2023-04-20T00:14:46.093Z,0.00
2023-04-20T00:15:46.096Z,0.00
2023-04-20T00:16:46.107Z,0.00
2023-04-20T00:17:46.070Z,0.00
2023-04-20T00:18:46.055Z,0.00
2023-04-20T00:19:46.031Z,0.00
2023-04-20T00:20:46.040Z,0.00
2023-04-20T00:21:45.995Z,0.00
2023-04-20T00:22:46.016Z,0.00
2023-04-20T00:23:46.014Z,0.00
2023-04-20T00:24:45.955Z,0.00
2023-04-20T00:25:46.010Z,0.00
2023-04-20T00:26:45.954Z,0.00
2023-04-20T00:27:45.940Z,0.00
2023-04-20T00:28:45.932Z,0.00
2023-04-20T00:29:45.912Z,0.00
2023-04-20T00:30:45.970Z,0.00
2023-04-20T00:31:45.896Z,0.00
2023-04-20T00:32:45.916Z,0.00
2023-04-20T00:33:45.863Z,0.00
2023-04-20T00:34:45.855Z,0.00
2023-04-20T00:35:45.879Z,0.00
2023-04-20T00:36:45.838Z,0.00
2023-04-20T00:37:45.819Z,0.00
2023-04-20T00:38:45.818Z,0.00
2023-04-20T00:39:45.792Z,0.00
2023-04-20T00:40:45.805Z,0.00
2023-04-20T00:41:45.764Z,0.00
2023-04-20T00:42:45.757Z,0.00
2023-04-20T00:43:45.744Z,0.00
2023-04-20T00:44:45.760Z,0.00
2023-04-20T00:45:45.766Z,0.00
2023-04-20T00:46:45.816Z,0.00
2023-04-20T00:47:45.710Z,0.00
2023-04-20T00:48:45.675Z,0.00
2023-04-20T00:49:45.692Z,0.00
2023-04-20T00:50:45.712Z,0.00
2023-04-20T00:51:45.658Z,0.00
2023-04-20T00:52:45.658Z,0.00
2023-04-20T00:53:45.633Z,0.00
2023-04-20T00:54:45.624Z,0.00
2023-04-20T00:55:45.657Z,0.00
2023-04-20T00:56:45.592Z,0.00
2023-04-20T00:57:45.585Z,0.00
2023-04-20T00:58:45.579Z,0.00
2023-04-20T00:59:45.577Z,0.00
2023-04-20T01:00:45.580Z,0.00
2023-04-20T01:01:45.555Z,0.00
2023-04-20T01:02:45.622Z,0.00
2023-04-20T01:03:45.794Z,0.00
2023-04-20T01:04:45.515Z,0.00
2023-04-20T01:05:45.545Z,0.00
2023-04-20T01:06:45.488Z,0.00
2023-04-20T01:07:45.472Z,0.00
2023-04-20T01:08:45.490Z,0.00
2023-04-20T01:09:45.475Z,0.00
2023-04-20T01:10:45.472Z,0.00
2023-04-20T01:11:45.415Z,0.00
2023-04-20T01:12:45.412Z,0.00
2023-04-20T01:13:45.443Z,0.00
2023-04-20T01:14:45.371Z,0.00
2023-04-20T01:15:45.452Z,0.00
2023-04-20T01:16:45.366Z,0.00
2023-04-20T01:17:45.426Z,0.00
2023-04-20T01:18:45.351Z,0.00
2023-04-20T01:19:45.350Z,0.00
2023-04-20T01:20:45.369Z,0.00
2023-04-20T01:21:45.322Z,0.00
2023-04-20T01:22:45.297Z,0.00
2023-04-20T01:23:45.306Z,0.00
2023-04-20T01:24:45.304Z,0.00
2023-04-20T01:25:45.324Z,0.00
2023-04-20T01:26:45.259Z,0.00
2023-04-20T01:27:45.254Z,0.00
2023-04-20T01:28:45.238Z,0.00
2023-04-20T01:29:45.245Z,0.00
2023-04-20T01:30:45.209Z,0.00
2023-04-20T01:31:45.323Z,0.00
2023-04-20T01:32:45.258Z,0.00
2023-04-20T01:33:45.212Z,0.00
2023-04-20T01:34:45.154Z,0.00
2023-04-20T01:35:45.149Z,0.00
2023-04-20T01:36:45.205Z,0.00
2023-04-20T01:37:45.171Z,0.00
2023-04-20T01:38:45.249Z,0.00
2023-04-20T01:39:45.229Z,0.00
2023-04-20T01:40:45.168Z,0.00
2023-04-20T01:41:45.122Z,0.00
2023-04-20T01:42:45.195Z,0.00
2023-04-20T01:43:45.065Z,0.00
2023-04-20T01:44:45.048Z,0.00
2023-04-20T01:45:45.050Z,0.00
2023-04-20T01:46:45.130Z,0.00
2023-04-20T01:47:45.074Z,0.00
2023-04-20T01:48:45.037Z,0.00
2023-04-20T01:49:45.029Z,0.00
2023-04-20T01:50:44.997Z,0.00
2023-04-20T01:51:45.012Z,0.00
2023-04-20T01:52:44.966Z,0.00
2023-04-20T01:53:44.968Z,0.00
2023-04-20T01:54:44.936Z,0.00
2023-04-20T01:55:44.933Z,0.00
2023-04-20T01:56:44.948Z,0.00
2023-04-20T01:57:44.892Z,0.00
2023-04-20T01:58:44.902Z,0.00
2023-04-20T01:59:44.896Z,0.00
2023-04-20T02:00:45.016Z,0.00
2023-04-20T02:01:44.896Z,0.00
2023-04-20T02:02:44.986Z,0.00
2023-04-20T02:03:45.006Z,0.00
2023-04-20T02:04:44.850Z,0.00
2023-04-20T02:05:44.832Z,0.00
2023-04-20T02:06:44.858Z,0.00
2023-04-20T02:07:44.795Z,0.00
2023-04-20T02:08:44.774Z,0.00
2023-04-20T02:09:44.812Z,0.00
2023-04-20T02:10:44.778Z,0.00
2023-04-20T02:11:44.794Z,0.00
2023-04-20T02:12:44.710Z,0.00
2023-04-20T02:13:44.706Z,0.00
2023-04-20T02:14:44.690Z,0.00
2023-04-20T02:15:44.705Z,0.00
2023-04-20T02:16:44.780Z,0.00
2023-04-20T02:17:44.702Z,0.00
2023-04-20T02:18:44.656Z,0.00
2023-04-20T02:19:44.664Z,0.00
2023-04-20T02:20:44.683Z,0.00
2023-04-20T02:21:44.692Z,0.00
2023-04-20T02:22:44.619Z,0.00
2023-04-20T02:23:44.606Z,0.00
2023-04-20T02:24:44.618Z,0.00
2023-04-20T02:25:44.607Z,0.00
2023-04-20T02:26:44.618Z,0.00
2023-04-20T02:27:44.569Z,0.00
2023-04-20T02:28:44.550Z,0.00
2023-04-20T02:29:44.543Z,0.00
2023-04-20T02:30:44.527Z,0.00
2023-04-20T02:31:44.657Z,0.00
2023-04-20T02:32:44.563Z,0.00
2023-04-20T02:33:44.499Z,0.00
2023-04-20T02:34:44.488Z,0.00
2023-04-20T02:35:44.507Z,0.00
2023-04-20T02:36:44.498Z,0.00
2023-04-20T02:37:44.458Z,0.00
2023-04-20T02:38:44.449Z,0.00
2023-04-20T02:39:44.429Z,0.00
2023-04-20T02:40:44.402Z,0.00
2023-04-20T02:41:44.417Z,0.00
2023-04-20T02:42:44.434Z,0.00
2023-04-20T02:43:44.376Z,0.00
2023-04-20T02:44:44.362Z,0.00
2023-04-20T02:45:44.356Z,0.00
2023-04-20T02:46:44.394Z,0.00
2023-04-20T02:47:44.420Z,0.00
2023-04-20T02:48:44.337Z,0.00
2023-04-20T02:49:44.315Z,0.00
2023-04-20T02:50:44.298Z,0.00
2023-04-20T02:51:44.275Z,0.00
2023-04-20T02:52:44.320Z,0.00
2023-04-20T02:53:44.255Z,0.00
2023-04-20T02:54:44.261Z,0.00
2023-04-20T02:55:44.244Z,0.00
2023-04-20T02:56:44.238Z,0.00
2023-04-20T02:57:44.257Z,0.00
2023-04-20T02:58:44.216Z,0.00
2023-04-20T02:59:44.202Z,0.00
2023-04-20T03:00:44.188Z,0.00
2023-04-20T03:01:44.246Z,0.00
2023-04-20T03:02:44.291Z,0.00
2023-04-20T03:03:44.294Z,0.00
2023-04-20T03:04:44.310Z,0.00
2023-04-20T03:05:44.133Z,0.00
2023-04-20T03:06:44.132Z,0.00
2023-04-20T03:07:44.146Z,0.00
2023-04-20T03:08:44.092Z,0.00
2023-04-20T03:09:44.083Z,0.00
2023-04-20T03:10:44.082Z,0.00
2023-04-20T03:11:44.054Z,0.00
2023-04-20T03:12:44.116Z,0.00
2023-04-20T03:13:44.085Z,0.00
2023-04-20T03:14:44.037Z,0.00
2023-04-20T03:15:44.008Z,0.00
2023-04-20T03:16:44.100Z,0.00
2023-04-20T03:17:44.046Z,0.00
2023-04-20T03:18:44.226Z,0.00
2023-04-20T03:19:43.984Z,0.00
2023-04-20T03:20:43.964Z,0.00
2023-04-20T03:21:43.988Z,0.00
2023-04-20T03:22:44.032Z,0.00
2023-04-20T03:23:43.917Z,4.00
2023-04-20T03:24:43.917Z,4.00
2023-04-20T03:25:43.907Z,4.00
2023-04-20T03:26:43.889Z,0.00
2023-04-20T03:27:43.919Z,4.00
2023-04-20T03:28:43.870Z,4.00
2023-04-20T03:29:43.854Z,4.00
2023-04-20T03:30:43.856Z,8.00
2023-04-20T03:31:43.896Z,4.00
2023-04-20T03:32:43.934Z,4.00
2023-04-20T03:33:43.807Z,8.00
2023-04-20T03:34:43.805Z,8.00
2023-04-20T03:35:43.788Z,8.00
2023-04-20T03:36:43.777Z,12.00
2023-04-20T03:37:43.758Z,12.00
2023-04-20T03:38:43.793Z,16.00
2023-04-20T03:39:43.736Z,20.00
2023-04-20T03:40:43.736Z,24.00
2023-04-20T03:41:43.755Z,28.00
2023-04-20T03:42:43.709Z,32.00
2023-04-20T03:43:43.746Z,36.00
2023-04-20T03:44:43.708Z,36.00
2023-04-20T03:45:43.723Z,44.00
2023-04-20T03:46:43.654Z,48.00
2023-04-20T03:47:43.694Z,56.00
2023-04-20T03:48:43.686Z,60.00
2023-04-20T03:49:43.643Z,68.00
2023-04-20T03:50:43.623Z,76.00
2023-04-20T03:51:43.629Z,80.00
2023-04-20T03:52:43.608Z,88.00
2023-04-20T03:53:43.624Z,96.00
2023-04-20T03:54:43.571Z,108.00
2023-04-20T03:55:43.585Z,124.00
2023-04-20T03:56:43.567Z,152.00
2023-04-20T03:57:43.568Z,176.00
2023-04-20T03:58:43.566Z,200.00
2023-04-20T03:59:43.815Z,224.00
2023-04-20T04:00:43.515Z,240.00
2023-04-20T04:01:43.489Z,264.00
2023-04-20T04:02:43.653Z,312.00
2023-04-20T04:03:43.696Z,348.00
2023-04-20T04:04:43.529Z,384.00
2023-04-20T04:05:43.463Z,404.00
2023-04-20T04:06:43.510Z,416.00
2023-04-20T04:07:43.433Z,444.00
2023-04-20T04:08:43.460Z,496.00
2023-04-20T04:09:43.421Z,524.00
2023-04-20T04:10:43.425Z,564.00
2023-04-20T04:11:43.454Z,576.00
2023-04-20T04:12:43.396Z,564.00
2023-04-20T04:13:43.380Z,556.00
2023-04-20T04:14:43.333Z,552.00
2023-04-20T04:15:43.333Z,544.00
2023-04-20T04:16:43.394Z,568.00
2023-04-20T04:17:43.332Z,596.00
2023-04-20T04:18:43.349Z,636.00
2023-04-20T04:19:43.298Z,624.00
2023-04-20T04:20:43.314Z,668.00
2023-04-20T04:21:43.279Z,752.00
2023-04-20T04:22:43.258Z,820.00
2023-04-20T04:23:43.288Z,864.00
2023-04-20T04:24:43.258Z,940.00
2023-04-20T04:25:43.212Z,1020.00
2023-04-20T04:26:43.230Z,1084.00
2023-04-20T04:27:43.193Z,1068.00
2023-04-20T04:28:43.260Z,1108.00
2023-04-20T04:29:43.177Z,1232.00
2023-04-20T04:30:43.179Z,1396.00
2023-04-20T04:31:43.174Z,1512.00
2023-04-20T04:32:43.216Z,1632.00
2023-04-20T04:33:43.179Z,1716.00
2023-04-20T04:34:43.136Z,1740.00
2023-04-20T04:35:43.130Z,1704.00
2023-04-20T04:36:43.121Z,1672.00
2023-04-20T04:37:43.104Z,1716.00
2023-04-20T04:38:43.133Z,1904.00
2023-04-20T04:39:43.082Z,2032.00
2023-04-20T04:40:43.059Z,2072.00
2023-04-20T04:41:43.058Z,2272.00
2023-04-20T04:42:43.029Z,2480.00
2023-04-20T04:43:43.060Z,2536.00
2023-04-20T04:44:43.030Z,2476.00
2023-04-20T04:45:42.999Z,2328.00
2023-04-20T04:46:43.106Z,2292.00
2023-04-20T04:47:42.991Z,2164.00
2023-04-20T04:48:43.002Z,2112.00
2023-04-20T04:49:42.973Z,2160.00
2023-04-20T04:50:42.964Z,2232.00
2023-04-20T04:51:42.942Z,2376.00
2023-04-20T04:52:42.962Z,2600.00
2023-04-20T04:53:42.966Z,2824.00
2023-04-20T04:54:42.909Z,3056.00
2023-04-20T04:55:42.899Z,3280.00
2023-04-20T04:56:42.892Z,3484.00
2023-04-20T04:57:42.891Z,3668.00
2023-04-20T04:58:42.881Z,3708.00
2023-04-20T04:59:42.887Z,3716.00
2023-04-20T05:00:42.843Z,3788.00
2023-04-20T05:01:42.898Z,3708.00
2023-04-20T05:02:42.942Z,3548.00
2023-04-20T05:03:42.964Z,3332.00
2023-04-20T05:04:42.911Z,3188.00
2023-04-20T05:05:42.781Z,3124.00
2023-04-20T05:06:42.776Z,3140.00
2023-04-20T05:07:42.749Z,3276.00
2023-04-20T05:08:42.741Z,3512.00
2023-04-20T05:09:42.771Z,3888.00
2023-04-20T05:10:42.698Z,4300.00
2023-04-20T05:11:42.701Z,4616.00
2023-04-20T05:12:42.692Z,4828.00
2023-04-20T05:13:42.687Z,4904.00
2023-04-20T05:14:42.699Z,5076.00
2023-04-20T05:15:43.954Z,5356.00
2023-04-20T05:16:42.734Z,5720.00
2023-04-20T05:17:42.711Z,5980.00
2023-04-20T05:18:42.615Z,6052.00
2023-04-20T05:19:42.655Z,6064.00
2023-04-20T05:20:42.597Z,5804.00
2023-04-20T05:21:42.621Z,5472.00
2023-04-20T05:22:42.573Z,5232.00
2023-04-20T05:23:42.570Z,5196.00
2023-04-20T05:24:42.609Z,5272.00
2023-04-20T05:25:42.535Z,5160.00
2023-04-20T05:26:42.542Z,4924.00
2023-04-20T05:27:42.536Z,4804.00
2023-04-20T05:28:42.527Z,4920.00
2023-04-20T05:29:42.581Z,5156.00
2023-04-20T05:30:42.490Z,5388.00
2023-04-20T05:31:42.510Z,5680.00
2023-04-20T05:32:42.470Z,6144.00
2023-04-20T05:33:42.474Z,6780.00
2023-04-20T05:34:42.474Z,7240.00
2023-04-20T05:35:42.439Z,7440.00
2023-04-20T05:36:42.423Z,7608.00
2023-04-20T05:37:42.443Z,7676.00
2023-04-20T05:38:42.392Z,7692.00
2023-04-20T05:39:42.404Z,7760.00
2023-04-20T05:40:42.348Z,7820.00
2023-04-20T05:41:42.350Z,7936.00
2023-04-20T05:42:42.342Z,8344.00
2023-04-20T05:43:42.343Z,9028.00
2023-04-20T05:44:42.370Z,9308.00
2023-04-20T05:45:42.390Z,9380.00
2023-04-20T05:46:42.301Z,9156.00
2023-04-20T05:47:42.415Z,8816.00
2023-04-20T05:48:42.311Z,8416.00
2023-04-20T05:49:42.305Z,7952.00
2023-04-20T05:50:42.275Z,7612.00
2023-04-20T05:51:42.236Z,7344.00
2023-04-20T05:52:42.247Z,7484.00
2023-04-20T05:53:42.296Z,7500.00
2023-04-20T05:54:42.251Z,7676.00
2023-04-20T05:55:42.195Z,7808.00
2023-04-20T05:56:42.220Z,7664.00
2023-04-20T05:57:42.162Z,7644.00
2023-04-20T05:58:42.136Z,7880.00
2023-04-20T05:59:42.181Z,8344.00
2023-04-20T06:00:42.145Z,8284.00
2023-04-20T06:01:42.144Z,7516.00
2023-04-20T06:02:42.231Z,7020.00
2023-04-20T06:03:42.215Z,6852.00
2023-04-20T06:04:42.306Z,7036.00
2023-04-20T06:05:42.154Z,6832.00
2023-04-20T06:06:42.078Z,6120.00
2023-04-20T06:07:42.044Z,5176.00
2023-04-20T06:08:42.037Z,4568.00
2023-04-20T06:09:42.067Z,4732.00
2023-04-20T06:10:42.017Z,5056.00
2023-04-20T06:11:42.050Z,5208.00
2023-04-20T06:12:42.090Z,5564.00
2023-04-20T06:13:42.053Z,6368.00
2023-04-20T06:14:42.053Z,7124.00
2023-04-20T06:15:42.028Z,7524.00
2023-04-20T06:16:41.960Z,8264.00
2023-04-20T06:17:42.033Z,9252.00
2023-04-20T06:18:41.951Z,9964.00
2023-04-20T06:19:41.965Z,9840.00
2023-04-20T06:20:41.928Z,9140.00
2023-04-20T06:21:41.908Z,8672.00
2023-04-20T06:22:41.898Z,8464.00
2023-04-20T06:23:41.922Z,8456.00
2023-04-20T06:24:41.926Z,8620.00
2023-04-20T06:25:41.872Z,8692.00
2023-04-20T06:26:41.853Z,8572.00
2023-04-20T06:27:41.873Z,8388.00
2023-04-20T06:28:41.871Z,8232.00
2023-04-20T06:29:41.915Z,8452.00
2023-04-20T06:30:41.853Z,8708.00
2023-04-20T06:31:41.802Z,8876.00
2023-04-20T06:32:41.823Z,8808.00
2023-04-20T06:33:41.772Z,8500.00
2023-04-20T06:34:41.794Z,8352.00
2023-04-20T06:35:41.750Z,8352.00
2023-04-20T06:36:41.711Z,8452.00
2023-04-20T06:37:41.705Z,8580.00
2023-04-20T06:38:41.697Z,8756.00
2023-04-20T06:39:41.737Z,8928.00
2023-04-20T06:40:41.681Z,9092.00
2023-04-20T06:41:41.693Z,9224.00
2023-04-20T06:42:41.720Z,9360.00
2023-04-20T06:43:41.655Z,9460.00
2023-04-20T06:44:41.658Z,9596.00
2023-04-20T06:45:41.618Z,9644.00
2023-04-20T06:46:41.750Z,9716.00
2023-04-20T06:47:41.653Z,9896.00
2023-04-20T06:48:41.586Z,10160.00
2023-04-20T06:49:41.607Z,10316.00
2023-04-20T06:50:41.552Z,10420.00
2023-04-20T06:51:41.569Z,10364.00
2023-04-20T06:52:41.554Z,10144.00
2023-04-20T06:53:41.554Z,10044.00
2023-04-20T06:54:41.612Z,10068.00
2023-04-20T06:55:41.524Z,10180.00
2023-04-20T06:56:41.514Z,10508.00
2023-04-20T06:57:41.476Z,11028.00
2023-04-20T06:58:41.471Z,11700.00
2023-04-20T06:59:41.541Z,12052.00
2023-04-20T07:00:41.449Z,12332.00
2023-04-20T07:01:41.540Z,12820.00
2023-04-20T07:02:41.514Z,13500.00
2023-04-20T07:03:41.536Z,14140.00
2023-04-20T07:04:41.463Z,14672.00
2023-04-20T07:05:41.391Z,15212.00
2023-04-20T07:06:41.367Z,15716.00
2023-04-20T07:07:41.460Z,16184.00
2023-04-20T07:08:41.412Z,16644.00
2023-04-20T07:09:41.382Z,16848.00
2023-04-20T07:10:41.377Z,17504.00
2023-04-20T07:11:41.327Z,17856.00
2023-04-20T07:12:43.119Z,18176.00
2023-04-20T07:13:41.377Z,18240.00
2023-04-20T07:14:41.299Z,18208.00
2023-04-20T07:15:41.321Z,18208.00
2023-04-20T07:16:41.329Z,18272.00
2023-04-20T07:17:41.317Z,18720.00
2023-04-20T07:18:41.246Z,19392.00
2023-04-20T07:19:41.271Z,19968.00
2023-04-20T07:20:41.263Z,20160.00
2023-04-20T07:21:41.228Z,19936.00
2023-04-20T07:22:41.216Z,19424.00
2023-04-20T07:23:42.283Z,18784.00
2023-04-20T07:24:41.180Z,18336.00
2023-04-20T07:25:41.221Z,18688.00
2023-04-20T07:26:41.151Z,19200.00
2023-04-20T07:27:41.275Z,19712.00
2023-04-20T07:28:41.157Z,20224.00
2023-04-20T07:29:41.124Z,20672.00
2023-04-20T07:30:41.164Z,20864.00
2023-04-20T07:31:41.098Z,20928.00
2023-04-20T07:32:41.173Z,20896.00
2023-04-20T07:33:41.075Z,20704.00
2023-04-20T07:34:41.052Z,20256.00
2023-04-20T07:35:41.093Z,19744.00
2023-04-20T07:36:41.038Z,19360.00
2023-04-20T07:37:41.029Z,19488.00
2023-04-20T07:38:41.039Z,19968.00
2023-04-20T07:39:41.019Z,20448.00
2023-04-20T07:40:41.036Z,20736.00
2023-04-20T07:41:40.994Z,20960.00
2023-04-20T07:42:40.995Z,21312.00
2023-04-20T07:43:40.996Z,21952.00
2023-04-20T07:44:41.026Z,22496.00
2023-04-20T07:45:41.054Z,22496.00
2023-04-20T07:46:40.941Z,22272.00
2023-04-20T07:47:41.099Z,21888.00
2023-04-20T07:48:40.944Z,21632.00
2023-04-20T07:49:40.912Z,21472.00
2023-04-20T07:50:40.928Z,21248.00
2023-04-20T07:51:40.884Z,20736.00
2023-04-20T07:52:40.862Z,19712.00
2023-04-20T07:53:40.883Z,18592.00
2023-04-20T07:54:40.855Z,17388.00
2023-04-20T07:55:40.902Z,16344.00
2023-04-20T07:56:40.842Z,15028.00
2023-04-20T07:57:40.807Z,13432.00
2023-04-20T07:58:40.797Z,11844.00
2023-04-20T07:59:40.967Z,10860.00
2023-04-20T08:00:40.809Z,10768.00
2023-04-20T08:01:40.743Z,11380.00
2023-04-20T08:02:41.077Z,12268.00
2023-04-20T08:03:40.896Z,12740.00
2023-04-20T08:04:41.187Z,12596.00
2023-04-20T08:05:40.885Z,11884.00
2023-04-20T08:06:40.708Z,10792.00
2023-04-20T08:07:40.775Z,9784.00
2023-04-20T08:08:40.707Z,9232.00
2023-04-20T08:09:40.689Z,9288.00
2023-04-20T08:10:40.721Z,9856.00
2023-04-20T08:11:40.638Z,10660.00
2023-04-20T08:12:40.639Z,11444.00
2023-04-20T08:13:40.603Z,12432.00
2023-04-20T08:14:40.611Z,13576.00
2023-04-20T08:15:40.689Z,14788.00
2023-04-20T08:16:40.612Z,15744.00
2023-04-20T08:17:40.603Z,16176.00
2023-04-20T08:18:40.555Z,16352.00
2023-04-20T08:19:42.359Z,16492.00
2023-04-20T08:20:40.605Z,16876.00
2023-04-20T08:21:40.543Z,17696.00
2023-04-20T08:22:40.506Z,18432.00
2023-04-20T08:23:40.499Z,19520.00
2023-04-20T08:24:40.520Z,21344.00
2023-04-20T08:25:40.509Z,23296.00
2023-04-20T08:26:40.469Z,24928.00
2023-04-20T08:27:40.484Z,25984.00
2023-04-20T08:28:40.457Z,26400.00
2023-04-20T08:29:40.455Z,25856.00
2023-04-20T08:30:40.467Z,24800.00
2023-04-20T08:31:40.448Z,23072.00
2023-04-20T08:32:40.410Z,20736.00
2023-04-20T08:33:40.549Z,18784.00
2023-04-20T08:34:40.463Z,17728.00
2023-04-20T08:35:41.067Z,16796.00
2023-04-20T08:36:40.390Z,16140.00
2023-04-20T08:37:40.348Z,15420.00
2023-04-20T08:38:40.370Z,14888.00
2023-04-20T08:39:40.383Z,14892.00
2023-04-20T08:40:40.363Z,15488.00
2023-04-20T08:41:40.301Z,16220.00
2023-04-20T08:42:40.296Z,16412.00
2023-04-20T08:43:40.257Z,16464.00
2023-04-20T08:44:40.262Z,16704.00
2023-04-20T08:45:40.389Z,16628.00
2023-04-20T08:46:40.327Z,16252.00
2023-04-20T08:47:40.300Z,16060.00
2023-04-20T08:48:40.210Z,16116.00
2023-04-20T08:49:40.215Z,16104.00
2023-04-20T08:50:40.278Z,15960.00
2023-04-20T08:51:40.212Z,15828.00
2023-04-20T08:52:40.165Z,15496.00
2023-04-20T08:53:40.181Z,15108.00
2023-04-20T08:54:55.194Z,14772.00
2023-04-20T08:55:41.189Z,14528.00
2023-04-20T08:56:40.129Z,14260.00
2023-04-20T08:57:40.124Z,14044.00
2023-04-20T08:58:40.069Z,13956.00
2023-04-20T08:59:40.079Z,13948.00
2023-04-20T09:00:40.068Z,14280.00
2023-04-20T09:01:40.151Z,14920.00
2023-04-20T09:02:40.233Z,15816.00
2023-04-20T09:03:40.215Z,16648.00
2023-04-20T09:04:40.237Z,17300.00
2023-04-20T09:05:40.048Z,17696.00
2023-04-20T09:06:40.048Z,18496.00
2023-04-20T09:07:40.010Z,19232.00
2023-04-20T09:08:39.972Z,19520.00
2023-04-20T09:09:39.984Z,19904.00
2023-04-20T09:10:39.973Z,20704.00
2023-04-20T09:11:40.035Z,22176.00
2023-04-20T09:12:39.952Z,22336.00
2023-04-20T09:13:39.942Z,22208.00
2023-04-20T09:14:39.901Z,21376.00
2023-04-20T09:15:39.922Z,20864.00
2023-04-20T09:16:40.016Z,20576.00
2023-04-20T09:17:39.939Z,19808.00
2023-04-20T09:18:39.839Z,19328.00
2023-04-20T09:19:39.863Z,19424.00
2023-04-20T09:20:39.827Z,19840.00
2023-04-20T09:21:39.848Z,20704.00
2023-04-20T09:22:39.855Z,22656.00
2023-04-20T09:23:39.812Z,28640.00
2023-04-20T09:24:39.841Z,28512.00
2023-04-20T09:25:39.795Z,33120.00
2023-04-20T09:26:39.791Z,36928.00
2023-04-20T09:27:39.758Z,39136.00
2023-04-20T09:28:39.785Z,37728.00
2023-04-20T09:29:39.740Z,35872.00
2023-04-20T09:30:39.724Z,38112.00
2023-04-20T09:31:39.771Z,41184.00
2023-04-20T09:32:39.780Z,45344.00
2023-04-20T09:33:39.701Z,42944.00
2023-04-20T09:34:39.674Z,44384.00
2023-04-20T09:35:39.655Z,37600.00
2023-04-20T09:36:39.713Z,41824.00
2023-04-20T09:37:39.658Z,41408.00
2023-04-20T09:38:39.614Z,51744.00
2023-04-20T09:39:39.636Z,57056.00
2023-04-20T09:40:39.629Z,44096.00
2023-04-20T09:41:39.618Z,35296.00
2023-04-20T09:42:39.590Z,32256.00
2023-04-20T09:43:39.572Z,31232.00
2023-04-20T09:44:39.557Z,30912.00
2023-04-20T09:45:39.559Z,31936.00
2023-04-20T09:46:39.632Z,33696.00
2023-04-20T09:47:39.579Z,41088.00
2023-04-20T09:48:39.499Z,50592.00
2023-04-20T09:49:39.518Z,52032.00
2023-04-20T09:50:48.573Z,50144.00
2023-04-20T09:51:40.569Z,41088.00
2023-04-20T09:52:39.461Z,36768.00
2023-04-20T09:53:39.471Z,37120.00
2023-04-20T09:54:39.432Z,35968.00
2023-04-20T09:55:39.444Z,39904.00
2023-04-20T09:56:39.498Z,39648.00
2023-04-20T09:57:39.436Z,39936.00
2023-04-20T09:58:39.434Z,38816.00
2023-04-20T09:59:39.562Z,38176.00
2023-04-20T10:00:39.416Z,39520.00
2023-04-20T10:01:39.467Z,42016.00
2023-04-20T10:02:39.519Z,41536.00
2023-04-20T10:03:39.491Z,42176.00
2023-04-20T10:04:39.414Z,41536.00
2023-04-20T10:05:39.338Z,41600.00
2023-04-20T10:06:39.366Z,39552.00
2023-04-20T10:07:39.302Z,39072.00
2023-04-20T10:08:39.293Z,35680.00
2023-04-20T10:09:39.287Z,32640.00
2023-04-20T10:10:39.299Z,32448.00
2023-04-20T10:11:49.622Z,33888.00
2023-04-20T10:12:40.242Z,33248.00
2023-04-20T10:13:39.284Z,34944.00
2023-04-20T10:14:39.232Z,37152.00
2023-04-20T10:15:39.197Z,37856.00
2023-04-20T10:16:39.384Z,39232.00
2023-04-20T10:17:39.222Z,42624.00
2023-04-20T10:18:39.200Z,45504.00
2023-04-20T10:19:39.180Z,42336.00
2023-04-20T10:20:39.148Z,42560.00
2023-04-20T10:21:39.173Z,44832.00
2023-04-20T10:22:39.128Z,47360.00
2023-04-20T10:23:39.132Z,47808.00
2023-04-20T10:24:39.124Z,47520.00
2023-04-20T10:25:39.079Z,44960.00
2023-04-20T10:26:39.131Z,44896.00
2023-04-20T10:27:39.060Z,46112.00
2023-04-20T10:28:39.170Z,43072.00
2023-04-20T10:29:39.055Z,45440.00
2023-04-20T10:30:39.136Z,40576.00
2023-04-20T10:31:39.107Z,48640.00
2023-04-20T10:32:39.053Z,49952.00
2023-04-20T10:33:39.018Z,33568.00
2023-04-20T10:34:38.986Z,33792.00
2023-04-20T10:35:38.974Z,33152.00
2023-04-20T10:36:38.992Z,31264.00
2023-04-20T10:37:38.978Z,28608.00
2023-04-20T10:38:38.958Z,28224.00
2023-04-20T10:39:38.938Z,26848.00
2023-04-20T10:40:38.956Z,24960.00
2023-04-20T10:41:38.979Z,23488.00
2023-04-20T10:42:38.921Z,23072.00
2023-04-20T10:43:38.936Z,24416.00
2023-04-20T10:44:38.867Z,24416.00
2023-04-20T10:45:38.869Z,23264.00
2023-04-20T10:46:38.880Z,22528.00
2023-04-20T10:47:38.918Z,22336.00
2023-04-20T10:48:38.835Z,22624.00
2023-04-20T10:49:38.822Z,21920.00
2023-04-20T10:50:38.789Z,20832.00
2023-04-20T10:51:38.923Z,22656.00
2023-04-20T10:52:38.820Z,25280.00
2023-04-20T10:53:38.798Z,32128.00
2023-04-20T10:54:38.757Z,31584.00
2023-04-20T10:55:38.753Z,25344.00
2023-04-20T10:56:38.824Z,21632.00
2023-04-20T10:57:38.810Z,20512.00
2023-04-20T10:58:38.700Z,18176.00
2023-04-20T10:59:38.711Z,15360.00
2023-04-20T11:00:38.691Z,13620.00
2023-04-20T11:01:38.780Z,15020.00
2023-04-20T11:02:38.836Z,16200.00
2023-04-20T11:03:38.813Z,17792.00
2023-04-20T11:04:38.682Z,20512.00
2023-04-20T11:05:38.632Z,21920.00
2023-04-20T11:06:38.670Z,25056.00
2023-04-20T11:07:38.662Z,26752.00
2023-04-20T11:08:38.639Z,26016.00
2023-04-20T11:09:38.614Z,23776.00
2023-04-20T11:10:38.559Z,22496.00
2023-04-20T11:11:38.562Z,23424.00
2023-04-20T11:12:38.559Z,24864.00
2023-04-20T11:13:38.569Z,27008.00
2023-04-20T11:14:38.555Z,25696.00
2023-04-20T11:15:38.512Z,22816.00
2023-04-20T11:16:49.623Z,22240.00
2023-04-20T11:17:39.559Z,21600.00
2023-04-20T11:18:38.506Z,24320.00
2023-04-20T11:19:38.496Z,26496.00
2023-04-20T11:20:38.447Z,26496.00
2023-04-20T11:21:38.444Z,27008.00
2023-04-20T11:22:38.428Z,26464.00
2023-04-20T11:23:38.447Z,25888.00
2023-04-20T11:24:38.396Z,25088.00
2023-04-20T11:25:38.385Z,26048.00
2023-04-20T11:26:38.374Z,25824.00
2023-04-20T11:27:38.374Z,25856.00
2023-04-20T11:28:38.391Z,22176.00
2023-04-20T11:29:38.345Z,21632.00
2023-04-20T11:30:39.296Z,26176.00
2023-04-20T11:31:38.435Z,29472.00
2023-04-20T11:32:38.672Z,26656.00
2023-04-20T11:33:38.348Z,23008.00
2023-04-20T11:34:38.288Z,20832.00
2023-04-20T11:35:38.288Z,23904.00
2023-04-20T11:36:38.298Z,25824.00
2023-04-20T11:37:38.239Z,24672.00
2023-04-20T11:38:38.284Z,24544.00
2023-04-20T11:39:38.416Z,24544.00
2023-04-20T11:40:38.234Z,24320.00
2023-04-20T11:41:38.196Z,26464.00
2023-04-20T11:42:38.192Z,30272.00
2023-04-20T11:43:38.204Z,31552.00
2023-04-20T11:44:38.158Z,29600.00
2023-04-20T11:45:38.188Z,28640.00
2023-04-20T11:46:38.155Z,25216.00
2023-04-20T11:47:38.178Z,24384.00
2023-04-20T11:48:38.162Z,23232.00
2023-04-20T11:49:38.130Z,26944.00
2023-04-20T11:50:39.715Z,31456.00
2023-04-20T11:51:38.097Z,30880.00
2023-04-20T11:52:38.098Z,29664.00
2023-04-20T11:53:38.108Z,24192.00
2023-04-20T11:54:38.073Z,20928.00
2023-04-20T11:55:38.039Z,20128.00
2023-04-20T11:56:38.023Z,21952.00
2023-04-20T11:57:38.017Z,27008.00
2023-04-20T11:58:38.048Z,30816.00
2023-04-20T11:59:38.028Z,27520.00
2023-04-20T12:00:38.010Z,23296.00
2023-04-20T12:01:37.959Z,23456.00
2023-04-20T12:02:38.123Z,27200.00
2023-04-20T12:03:38.095Z,28288.00
2023-04-20T12:04:38.045Z,27360.00
2023-04-20T12:05:37.969Z,24256.00
2023-04-20T12:06:37.923Z,25696.00
2023-04-20T12:07:37.922Z,30272.00
2023-04-20T12:08:37.929Z,28160.00
2023-04-20T12:09:37.898Z,25248.00
2023-04-20T12:10:37.884Z,25888.00
2023-04-20T12:11:37.894Z,27520.00
2023-04-20T12:12:37.865Z,27456.00
2023-04-20T12:13:37.899Z,29984.00
2023-04-20T12:14:37.813Z,32352.00
2023-04-20T12:15:37.864Z,26080.00
2023-04-20T12:16:37.786Z,24384.00
2023-04-20T12:17:37.850Z,26080.00